createdAt,value
2019-02-16T00:01:14.367Z,21.77
2019-02-16T00:03:43.696Z,20.67
2019-02-16T00:06:13.057Z,22.70
2019-02-16T00:08:42.383Z,23.10
2019-02-16T00:11:11.701Z,22.13
2019-02-16T00:13:41.076Z,21.10
2019-02-16T00:16:10.403Z,22.03
2019-02-16T00:18:39.721Z,22.77
2019-02-16T00:21:09.161Z,23.00
2019-02-16T00:23:38.487Z,21.60
2019-02-16T00:26:07.819Z,21.03
2019-02-16T00:28:37.171Z,20.97
2019-02-16T00:31:07.466Z,21.63
2019-02-16T00:33:36.861Z,24.90
2019-02-16T00:36:06.300Z,22.97
2019-02-16T00:38:35.631Z,24.17
2019-02-16T00:41:04.946Z,23.07
2019-02-16T00:43:34.306Z,22.93
2019-02-16T00:46:03.633Z,23.90
2019-02-16T00:48:32.957Z,22.30
2019-02-16T00:51:02.293Z,23.47
2019-02-16T00:53:31.684Z,25.57
2019-02-16T00:56:01.012Z,23.07
2019-02-16T00:58:30.377Z,23.33
2019-02-16T01:00:59.701Z,22.37
2019-02-16T01:03:29.028Z,22.30
2019-02-16T01:05:58.368Z,24.37
2019-02-16T01:08:27.706Z,22.70
2019-02-16T01:10:57.088Z,22.33
2019-02-16T01:13:26.412Z,23.70
2019-02-16T01:15:55.772Z,22.43
2019-02-16T01:18:25.089Z,23.57
2019-02-16T01:20:54.407Z,23.37
2019-02-16T01:23:23.750Z,23.53
2019-02-16T01:25:53.076Z,24.57
2019-02-16T01:28:22.396Z,24.70
2019-02-16T01:30:51.738Z,26.33
2019-02-16T01:33:21.059Z,24.53
2019-02-16T01:35:50.486Z,23.80
2019-02-16T01:38:19.879Z,24.23
2019-02-16T01:40:49.211Z,23.90
2019-02-16T01:43:18.678Z,23.37
2019-02-16T01:45:48.063Z,23.40
2019-02-16T01:48:17.422Z,24.57
2019-02-16T01:50:47.676Z,23.90
2019-02-16T01:53:17.006Z,22.23
2019-02-16T01:55:47.534Z,22.40
2019-02-16T01:58:17.058Z,23.47
2019-02-16T02:00:46.370Z,23.63
2019-02-16T02:03:15.697Z,22.77
2019-02-16T02:05:45.034Z,22.57
2019-02-16T02:08:14.362Z,23.63
2019-02-16T02:10:43.683Z,24.53
2019-02-16T02:13:13.011Z,23.57
2019-02-16T02:15:42.358Z,23.63
2019-02-16T02:18:11.689Z,25.37
2019-02-16T02:20:41.021Z,25.07
2019-02-16T02:23:10.361Z,25.47
2019-02-16T02:25:39.693Z,24.87
2019-02-16T02:28:09.020Z,24.33
2019-02-16T02:30:38.411Z,25.03
2019-02-16T02:33:07.843Z,22.90
2019-02-16T02:35:37.178Z,24.50
2019-02-16T02:38:06.500Z,26.13
2019-02-16T02:40:35.852Z,23.50
2019-02-16T02:43:05.163Z,25.03
2019-02-16T02:45:34.502Z,25.70
2019-02-16T02:48:03.882Z,26.50
2019-02-16T02:50:33.283Z,24.03
2019-02-16T02:53:02.632Z,24.13
2019-02-16T02:55:31.974Z,24.97
2019-02-16T02:58:01.304Z,24.87
2019-02-16T03:00:30.629Z,26.07
2019-02-16T03:02:59.991Z,26.00
2019-02-16T03:05:29.296Z,23.60
2019-02-16T03:07:58.624Z,24.03
2019-02-16T03:10:27.985Z,25.83
2019-02-16T03:12:57.300Z,25.60
2019-02-16T03:15:26.626Z,24.10
2019-02-16T03:17:55.986Z,24.27
2019-02-16T03:20:25.383Z,25.13
2019-02-16T03:23:17.505Z,25.20
2019-02-16T03:26:01.996Z,24.10
2019-02-16T03:28:52.613Z,24.73
2019-02-16T03:31:58.338Z,24.30
2019-02-16T03:34:33.310Z,24.13
2019-02-16T03:37:11.371Z,24.13
2019-02-16T03:39:42.462Z,24.97
2019-02-16T03:42:11.845Z,24.77
2019-02-16T03:44:41.257Z,26.00
2019-02-16T03:47:10.657Z,25.97
2019-02-16T03:49:40.053Z,25.03
2019-02-16T03:52:14.001Z,24.97
2019-02-16T03:54:40.590Z,23.43
2019-02-16T03:57:09.917Z,23.33
2019-02-16T03:59:39.247Z,23.37
2019-02-16T04:02:08.663Z,22.90
2019-02-16T04:04:37.988Z,22.33
2019-02-16T04:07:07.312Z,24.47
2019-02-16T04:09:36.698Z,23.47
2019-02-16T04:12:06.038Z,23.73
2019-02-16T04:14:35.351Z,22.20
2019-02-16T04:17:04.766Z,23.23
2019-02-16T04:19:34.095Z,22.77
2019-02-16T04:22:03.426Z,22.77
2019-02-16T04:24:32.785Z,23.27
2019-02-16T04:27:02.179Z,22.57
2019-02-16T04:29:31.519Z,23.97
2019-02-16T04:32:00.893Z,23.07
2019-02-16T04:34:30.202Z,23.70
2019-02-16T04:36:59.557Z,22.53
2019-02-16T04:39:28.905Z,22.13
2019-02-16T04:41:58.258Z,22.70
2019-02-16T04:44:27.615Z,22.97
2019-02-16T04:46:57.023Z,20.97
2019-02-16T04:49:26.361Z,22.27
2019-02-16T04:51:56.904Z,21.33
2019-02-16T04:54:26.233Z,21.70
2019-02-16T04:56:55.557Z,23.40
2019-02-16T04:59:24.911Z,21.83
2019-02-16T05:01:54.239Z,22.97
2019-02-16T05:04:23.555Z,23.67
2019-02-16T05:06:53.037Z,23.07
2019-02-16T05:09:22.373Z,23.47
2019-02-16T05:11:51.694Z,22.70
2019-02-16T05:14:21.121Z,22.27
2019-02-16T05:16:50.453Z,21.37
2019-02-16T05:19:19.873Z,21.10
2019-02-16T05:21:49.226Z,24.03
2019-02-16T05:24:18.550Z,23.57
2019-02-16T05:26:47.883Z,23.03
2019-02-16T05:29:17.234Z,23.57
2019-02-16T05:31:46.552Z,22.83
2019-02-16T05:34:15.880Z,25.30
2019-02-16T05:36:45.259Z,23.07
2019-02-16T05:39:14.585Z,23.13
2019-02-16T05:41:43.898Z,22.63
2019-02-16T05:44:13.244Z,25.13
2019-02-16T05:46:42.564Z,22.93
2019-02-16T05:49:11.892Z,23.87
2019-02-16T05:51:41.254Z,23.20
2019-02-16T05:54:10.577Z,24.33
2019-02-16T05:56:39.959Z,22.63
2019-02-16T05:59:09.313Z,22.53
2019-02-16T06:01:38.631Z,23.63
2019-02-16T06:04:08.042Z,23.67
2019-02-16T06:06:37.402Z,24.73
2019-02-16T06:09:06.788Z,23.23
2019-02-16T06:11:36.107Z,24.90
2019-02-16T06:14:05.484Z,23.87
2019-02-16T06:16:34.812Z,24.83
2019-02-16T06:19:04.138Z,25.00
2019-02-16T06:21:33.502Z,24.63
2019-02-16T06:24:02.813Z,24.67
2019-02-16T06:26:32.137Z,24.33
2019-02-16T06:29:01.490Z,23.73
2019-02-16T06:31:30.821Z,23.10
2019-02-16T06:34:00.149Z,23.73
2019-02-16T06:36:31.134Z,24.97
2019-02-16T06:39:00.590Z,24.30
2019-02-16T06:41:30.381Z,22.20
2019-02-16T06:43:59.787Z,24.17
2019-02-16T06:46:29.164Z,21.93
2019-02-16T06:48:58.486Z,23.27
2019-02-16T06:51:27.818Z,24.03
2019-02-16T06:53:57.177Z,22.57
2019-02-16T06:56:28.148Z,21.50
2019-02-16T06:58:57.492Z,23.03
2019-02-16T07:01:26.883Z,24.80
2019-02-16T07:03:56.203Z,24.30
2019-02-16T07:06:25.559Z,24.73
2019-02-16T07:08:54.904Z,22.83
2019-02-16T07:11:24.235Z,24.63
2019-02-16T07:13:53.645Z,23.03
2019-02-16T07:16:33.533Z,23.57
2019-02-16T07:19:04.620Z,22.90
2019-02-16T07:21:33.956Z,22.33
2019-02-16T07:24:03.358Z,22.70
2019-02-16T07:26:32.726Z,22.60
2019-02-16T07:29:03.086Z,23.17
2019-02-16T07:31:33.496Z,23.17
2019-02-16T07:34:02.819Z,23.70
2019-02-16T07:36:32.139Z,23.50
2019-02-16T07:39:01.494Z,23.13
2019-02-16T07:41:32.493Z,22.73
2019-02-16T07:44:03.467Z,23.40
2019-02-16T07:46:43.181Z,22.30
2019-02-16T07:49:20.099Z,23.00
2019-02-16T07:51:51.095Z,24.53
2019-02-16T07:54:24.817Z,23.73
2019-02-16T07:57:07.898Z,24.50
2019-02-16T07:59:38.869Z,25.53
2019-02-16T08:02:09.870Z,24.13
2019-02-16T08:04:47.013Z,22.77
2019-02-16T08:07:20.728Z,23.70
2019-02-16T08:10:03.869Z,22.87
2019-02-16T08:12:51.204Z,23.63
2019-02-16T08:15:37.171Z,24.70
2019-02-16T08:18:20.442Z,25.73
2019-02-16T08:20:54.114Z,23.07
2019-02-16T08:23:40.342Z,24.20
2019-02-16T08:26:09.662Z,24.50
2019-02-16T08:28:40.665Z,24.40
2019-02-16T08:31:29.842Z,23.43
2019-02-16T08:34:03.765Z,23.37
2019-02-16T08:36:34.758Z,22.80
2019-02-16T08:39:06.279Z,24.03
2019-02-16T08:41:43.298Z,22.93
2019-02-16T08:44:29.317Z,22.33
2019-02-16T08:47:00.314Z,23.07
2019-02-16T08:49:43.148Z,22.43
2019-02-16T08:52:19.666Z,23.20
2019-02-16T08:54:50.619Z,23.50
2019-02-16T08:57:24.645Z,22.50
2019-02-16T08:59:55.608Z,23.13
2019-02-16T09:02:26.627Z,22.40
2019-02-16T09:05:06.640Z,24.50
2019-02-16T09:07:49.620Z,23.97
2019-02-16T09:10:20.717Z,22.80
2019-02-16T09:12:51.723Z,23.20
2019-02-16T09:15:39.228Z,23.23
2019-02-16T09:18:26.617Z,22.30
2019-02-16T09:21:15.040Z,23.80
2019-02-16T09:23:46.261Z,23.43
2019-02-16T09:26:20.151Z,22.13
2019-02-16T09:28:56.996Z,21.67
2019-02-16T09:31:39.723Z,22.63
2019-02-16T09:34:19.354Z,22.27
2019-02-16T09:36:59.147Z,25.33
2019-02-16T09:39:39.277Z,24.00
2019-02-16T09:42:16.321Z,21.83
2019-02-16T09:44:47.283Z,23.13
2019-02-16T09:47:18.323Z,22.33
2019-02-16T09:49:49.383Z,20.47
2019-02-16T09:52:20.449Z,21.60
2019-02-16T09:55:03.248Z,20.90
2019-02-16T09:57:43.017Z,20.13
2019-02-16T10:00:19.906Z,19.23
2019-02-16T10:02:53.442Z,19.57
2019-02-16T10:05:24.513Z,20.77
2019-02-16T10:07:55.497Z,20.10
2019-02-16T10:10:26.479Z,21.53
2019-02-16T10:13:03.245Z,21.40
2019-02-16T10:15:49.261Z,20.93
2019-02-16T10:18:20.295Z,19.40
2019-02-16T10:20:57.420Z,19.43
2019-02-16T10:23:31.162Z,19.37
2019-02-16T10:26:04.911Z,19.80
2019-02-16T10:28:44.654Z,19.30
2019-02-16T10:31:16.622Z,20.63
2019-02-16T10:33:47.793Z,19.57
2019-02-16T10:36:24.809Z,20.13
2019-02-16T10:39:10.768Z,18.80
2019-02-16T10:41:50.856Z,18.50
2019-02-16T10:44:33.932Z,17.63
2019-02-16T10:47:07.648Z,17.97
2019-02-16T10:49:47.634Z,19.33
2019-02-16T10:52:18.670Z,18.10
2019-02-16T10:55:05.925Z,17.50
2019-02-16T10:57:40.046Z,17.13
2019-02-16T11:00:14.141Z,16.63
2019-02-16T11:03:00.222Z,16.70
2019-02-16T11:05:43.030Z,18.43
2019-02-16T11:08:14.012Z,19.00
2019-02-16T11:10:57.148Z,16.83
2019-02-16T11:13:36.802Z,18.63
2019-02-16T11:16:10.906Z,17.80
2019-02-16T11:18:47.909Z,17.63
2019-02-16T11:21:21.474Z,18.67
2019-02-16T11:24:09.088Z,17.90
2019-02-16T11:26:40.130Z,16.80
2019-02-16T11:29:27.218Z,17.90
2019-02-16T11:31:58.269Z,17.30
2019-02-16T11:34:31.970Z,18.37
2019-02-16T11:37:08.734Z,16.33
2019-02-16T11:39:45.507Z,16.57
2019-02-16T11:42:22.413Z,17.27
2019-02-16T11:44:56.358Z,17.13
2019-02-16T11:47:27.320Z,16.17
2019-02-16T11:50:13.118Z,16.03
2019-02-16T11:52:47.025Z,17.17
2019-02-16T11:55:23.782Z,15.90
2019-02-16T11:58:03.801Z,16.10
2019-02-16T12:00:40.448Z,16.23
2019-02-16T12:03:20.580Z,15.10
2019-02-16T12:06:00.716Z,16.23
2019-02-16T12:08:31.350Z,15.67
2019-02-16T12:11:02.248Z,15.33
2019-02-16T12:13:36.181Z,15.67
2019-02-16T12:16:09.948Z,16.17
2019-02-16T12:18:40.934Z,15.33
2019-02-16T12:21:14.712Z,15.70
2019-02-16T12:23:48.228Z,15.33
2019-02-16T12:26:21.752Z,15.20
2019-02-16T12:28:58.370Z,16.13
2019-02-16T12:31:45.238Z,15.23
2019-02-16T12:34:31.244Z,15.40
2019-02-16T12:37:17.115Z,16.10
2019-02-16T12:39:53.566Z,14.27
2019-02-16T12:42:24.210Z,15.17
2019-02-16T12:44:57.628Z,14.77
2019-02-16T12:47:34.144Z,15.17
2019-02-16T12:50:07.727Z,15.63
2019-02-16T12:52:54.844Z,14.50
2019-02-16T12:55:28.360Z,15.00
2019-02-16T12:57:58.918Z,14.70
2019-02-16T13:00:38.350Z,16.37
2019-02-16T13:03:12.017Z,16.40
2019-02-16T13:05:42.631Z,15.13
2019-02-16T13:08:22.044Z,14.83
2019-02-16T13:10:58.587Z,15.10
2019-02-16T13:13:32.213Z,15.37
2019-02-16T13:16:21.049Z,14.33
2019-02-16T13:18:51.605Z,14.73
2019-02-16T13:21:36.811Z,13.83
2019-02-16T13:24:13.366Z,13.90
2019-02-16T13:26:55.997Z,13.47
2019-02-16T13:29:26.575Z,13.10
2019-02-16T13:31:59.889Z,12.83
2019-02-16T13:34:46.737Z,13.20
2019-02-16T13:37:20.227Z,11.93
2019-02-16T13:40:03.101Z,12.80
2019-02-16T13:42:37.319Z,11.70
2019-02-16T13:45:17.875Z,11.90
2019-02-16T13:47:48.479Z,12.30
2019-02-16T13:50:20.400Z,12.10
2019-02-16T13:52:54.259Z,12.40
2019-02-16T13:55:33.557Z,12.00
2019-02-16T13:58:12.131Z,12.13
2019-02-16T14:00:42.725Z,13.53
2019-02-16T14:03:31.494Z,13.07
2019-02-16T14:06:08.048Z,12.67
2019-02-16T14:08:38.571Z,12.53
2019-02-16T14:11:09.161Z,12.93
2019-02-16T14:13:39.704Z,12.63
2019-02-16T14:16:10.270Z,11.67
2019-02-16T14:18:39.232Z,12.17
2019-02-16T14:21:08.137Z,12.30
2019-02-16T14:23:37.054Z,12.23
2019-02-16T14:26:05.976Z,12.20
2019-02-16T14:28:34.908Z,10.47
2019-02-16T14:31:03.806Z,11.80
2019-02-16T14:33:32.704Z,11.17
2019-02-16T14:36:01.814Z,11.60
2019-02-16T14:38:32.367Z,10.80
2019-02-16T14:41:02.380Z,12.00
2019-02-16T14:43:31.284Z,11.23
2019-02-16T14:46:00.240Z,11.30
2019-02-16T14:48:29.150Z,11.13
2019-02-16T14:50:58.057Z,11.90
2019-02-16T14:53:27.016Z,10.97
2019-02-16T14:55:55.920Z,12.30
2019-02-16T14:58:24.834Z,11.30
2019-02-16T15:00:53.897Z,11.43
2019-02-16T15:03:22.792Z,12.03
2019-02-16T15:05:51.700Z,11.33
2019-02-16T15:08:20.622Z,11.60
2019-02-16T15:10:49.526Z,11.63
2019-02-16T15:13:18.490Z,11.60
2019-02-16T15:15:54.869Z,11.30
2019-02-16T15:18:23.776Z,11.37
2019-02-16T15:20:52.688Z,10.33
2019-02-16T15:23:21.630Z,10.83
2019-02-16T15:25:50.535Z,11.20
2019-02-16T15:28:19.434Z,10.87
2019-02-16T15:30:48.389Z,10.07
2019-02-16T15:33:17.291Z,11.50
2019-02-16T15:35:46.186Z,11.10
2019-02-16T15:38:15.105Z,10.70
2019-02-16T15:40:44.081Z,10.33
2019-02-16T15:43:12.989Z,11.30
2019-02-16T15:45:41.920Z,10.53
2019-02-16T15:48:10.836Z,10.40
2019-02-16T15:50:39.749Z,10.77
2019-02-16T15:53:08.688Z,10.53
2019-02-16T15:55:37.683Z,11.60
2019-02-16T15:58:06.722Z,11.00
2019-02-16T16:00:35.763Z,12.20
2019-02-16T16:03:04.785Z,11.33
2019-02-16T16:05:33.692Z,11.63
2019-02-16T16:08:13.025Z,11.33
2019-02-16T16:10:43.650Z,13.13
2019-02-16T16:13:29.105Z,12.10
2019-02-16T16:16:11.947Z,11.73
2019-02-16T16:19:01.040Z,12.93
2019-02-16T16:21:43.897Z,12.53
2019-02-16T16:24:20.448Z,11.37
2019-02-16T16:26:53.931Z,11.23
2019-02-16T16:29:27.174Z,10.80
2019-02-16T16:32:00.528Z,11.90
2019-02-16T16:34:47.208Z,11.07
2019-02-16T16:37:23.746Z,10.43
2019-02-16T16:40:06.643Z,10.60
2019-02-16T16:42:40.333Z,10.40
2019-02-16T16:45:11.395Z,10.93
2019-02-16T16:47:42.356Z,11.20
2019-02-16T16:50:28.340Z,12.00
2019-02-16T16:53:11.177Z,12.40
2019-02-16T16:55:45.566Z,14.67
2019-02-16T16:58:19.197Z,12.60
2019-02-16T17:01:06.391Z,15.33
2019-02-16T17:03:37.358Z,13.20
2019-02-16T17:06:08.439Z,10.70
2019-02-16T17:08:39.413Z,10.73
2019-02-16T17:11:26.905Z,12.93
2019-02-16T17:14:00.587Z,13.23
2019-02-16T17:16:46.771Z,14.60
2019-02-16T17:19:17.480Z,13.67
2019-02-16T17:21:48.062Z,12.87
2019-02-16T17:24:18.596Z,11.97
2019-02-16T17:26:52.145Z,10.97
2019-02-16T17:29:22.681Z,11.90
2019-02-16T17:31:56.295Z,12.80
2019-02-16T17:34:26.852Z,12.33
2019-02-16T17:37:15.602Z,13.10
2019-02-16T17:39:49.183Z,11.87
2019-02-16T17:42:22.791Z,13.13
2019-02-16T17:45:10.099Z,13.00
2019-02-16T17:47:46.483Z,12.90
2019-02-16T17:50:17.014Z,12.87
2019-02-16T17:52:53.421Z,12.47
2019-02-16T17:55:26.930Z,11.70
2019-02-16T17:58:00.212Z,13.30
2019-02-16T18:00:43.211Z,12.03
2019-02-16T18:03:16.976Z,12.07
2019-02-16T18:06:04.220Z,11.37
2019-02-16T18:08:38.096Z,11.07
2019-02-16T18:11:11.763Z,11.97
2019-02-16T18:13:42.768Z,11.80
2019-02-16T18:16:13.730Z,11.73
2019-02-16T18:19:01.116Z,11.67
2019-02-16T18:21:32.153Z,12.60
2019-02-16T18:24:09.185Z,11.97
2019-02-16T18:26:42.611Z,11.43
2019-02-16T18:29:16.113Z,11.60
2019-02-16T18:31:51.170Z,12.63
2019-02-16T18:34:28.377Z,11.47
2019-02-16T18:37:08.387Z,12.03
2019-02-16T18:39:39.558Z,11.07
2019-02-16T18:42:13.840Z,12.40
2019-02-16T18:44:47.614Z,11.53
2019-02-16T18:47:30.567Z,10.87
2019-02-16T18:50:01.572Z,12.57
2019-02-16T18:52:47.606Z,11.47
2019-02-16T18:55:34.806Z,11.67
2019-02-16T18:58:05.858Z,12.30
2019-02-16T19:00:42.889Z,12.23
2019-02-16T19:03:19.565Z,12.37
2019-02-16T19:05:53.629Z,11.87
2019-02-16T19:08:24.589Z,11.27
2019-02-16T19:11:12.099Z,12.30
2019-02-16T19:14:01.288Z,11.87
2019-02-16T19:16:34.939Z,11.77
2019-02-16T19:19:05.986Z,10.83
2019-02-16T19:21:39.647Z,10.47
2019-02-16T19:24:10.723Z,11.27
2019-02-16T19:26:56.687Z,11.13
2019-02-16T19:29:33.511Z,11.73
2019-02-16T19:32:14.754Z,11.70
2019-02-16T19:34:45.819Z,10.60
2019-02-16T19:37:28.732Z,11.37
2019-02-16T19:40:08.713Z,11.67
2019-02-16T19:42:39.748Z,11.83
2019-02-16T19:45:22.816Z,10.77
2019-02-16T19:48:09.894Z,11.77
2019-02-16T19:50:59.273Z,11.13
2019-02-16T19:53:30.298Z,12.00
2019-02-16T19:56:04.049Z,11.37
2019-02-16T19:58:37.986Z,11.77
2019-02-16T20:01:09.014Z,11.37
2019-02-16T20:03:43.016Z,12.00
2019-02-16T20:06:14.038Z,10.57
2019-02-16T20:08:51.120Z,12.37
2019-02-16T20:11:34.385Z,12.67
2019-02-16T20:14:08.315Z,13.63
2019-02-16T20:16:39.341Z,13.07
2019-02-16T20:19:19.352Z,12.00
2019-02-16T20:22:02.600Z,14.07
2019-02-16T20:24:46.620Z,13.80
2019-02-16T20:27:37.628Z,14.43
2019-02-16T20:30:26.175Z,12.77
2019-02-16T20:33:02.914Z,12.70
2019-02-16T20:35:36.826Z,12.83
2019-02-16T20:38:22.846Z,12.87
2019-02-16T20:41:00.068Z,12.63
2019-02-16T20:43:33.303Z,12.27
2019-02-16T20:46:03.712Z,12.23
2019-02-16T20:48:50.921Z,12.20
2019-02-16T20:51:30.721Z,12.73
2019-02-16T20:54:19.199Z,12.57
2019-02-16T20:57:02.273Z,12.67
2019-02-16T20:59:33.250Z,12.87
2019-02-16T21:02:10.046Z,11.50
2019-02-16T21:04:41.050Z,12.50
2019-02-16T21:07:14.501Z,12.83
2019-02-16T21:09:45.490Z,11.93
2019-02-16T21:12:22.515Z,12.60
2019-02-16T21:14:53.587Z,12.27
2019-02-16T21:17:27.613Z,12.30
2019-02-16T21:20:01.431Z,11.47
2019-02-16T21:22:32.462Z,13.13
2019-02-16T21:25:15.681Z,12.07
2019-02-16T21:27:58.278Z,13.10
2019-02-16T21:30:40.161Z,11.40
2019-02-16T21:33:17.201Z,11.37
2019-02-16T21:35:54.175Z,10.97
2019-02-16T21:38:27.845Z,13.10
2019-02-16T21:41:01.492Z,11.93
2019-02-16T21:43:47.464Z,11.40
2019-02-16T21:46:18.478Z,12.23
2019-02-16T21:48:49.554Z,12.23
2019-02-16T21:51:20.529Z,11.10
2019-02-16T21:53:57.637Z,12.70
2019-02-16T21:56:43.771Z,12.47
2019-02-16T21:59:23.512Z,12.27
2019-02-16T22:02:10.552Z,13.00
2019-02-16T22:04:56.534Z,11.77
2019-02-16T22:07:27.513Z,12.27
2019-02-16T22:10:04.869Z,12.00
2019-02-16T22:12:39.011Z,12.27
2019-02-16T22:15:09.308Z,11.47
2019-02-16T22:17:38.699Z,11.77
2019-02-16T22:20:10.292Z,12.90
2019-02-16T22:22:41.166Z,11.37
2019-02-16T22:25:10.809Z,13.50
2019-02-16T22:27:40.180Z,12.00
2019-02-16T22:30:10.737Z,12.23
2019-02-16T22:32:40.202Z,11.67
2019-02-16T22:35:09.666Z,11.37
2019-02-16T22:37:39.025Z,12.27
2019-02-16T22:40:09.093Z,13.30
2019-02-16T22:42:38.417Z,11.10
2019-02-16T22:45:10.507Z,12.57
2019-02-16T22:47:39.832Z,13.67
2019-02-16T22:50:10.699Z,11.53
2019-02-16T22:52:40.054Z,12.17
2019-02-16T22:55:10.507Z,12.53
2019-02-16T22:57:39.843Z,13.03
2019-02-16T23:00:17.057Z,12.47
2019-02-16T23:02:48.187Z,12.83
2019-02-16T23:05:17.660Z,12.13
2019-02-16T23:07:47.044Z,11.70
2019-02-16T23:10:16.451Z,11.40
2019-02-16T23:12:45.911Z,12.03
2019-02-16T23:15:15.490Z,12.27
2019-02-16T23:17:44.941Z,12.83
2019-02-16T23:20:14.353Z,11.90
2019-02-16T23:22:43.719Z,11.83
2019-02-16T23:25:13.115Z,13.20
2019-02-16T23:27:42.501Z,12.93
2019-02-16T23:30:12.469Z,12.27
2019-02-16T23:32:41.925Z,11.70
2019-02-16T23:35:11.324Z,11.67
2019-02-16T23:37:40.751Z,12.13
2019-02-16T23:40:10.205Z,11.63
2019-02-16T23:42:39.661Z,11.77
2019-02-16T23:45:10.149Z,12.60
2019-02-16T23:47:39.565Z,12.63
2019-02-16T23:50:11.095Z,10.70
2019-02-16T23:52:40.417Z,11.87
2019-02-16T23:55:10.923Z,11.83
2019-02-16T23:57:40.238Z,12.00
